< < Back
Terminal Aerodrome Forecast


Current Version              Previous Versions:   1  2  3  4  5  6  7  8  9  

Terminal Aerodrome Forecast

114
FTUS42 KTAE 062327
TAFDHN
TAF
KDHN 062327Z 0700/0724 VRB03KT P6SM SKC
     FM071400 30005KT P6SM SCT050=

Latest METAR

546
SAUS70 KWBC 070400 RRC
MTRDHN
METAR KDHN 070353Z 00000KT 10SM CLR 24/23 A3016 RMK AO2 SLP206
T02440228


USA.gov is the U.S. government's official web portal to all federal, state and local government web resources and services.